Time;durP1;ratioP1;P1;durP2;ratioP2;P2;SDS_P1;SDS_P2;PMS_P1;PMS_P2;Temp;Humidity;BMP_temperature;BMP_pressure;BME280_temperature;BME280_humidity;BME280_pressure;Samples;Min_cycle;Max_cycle;Signal;HPM_P1;HPM_P2
2023/03/11 00:00:59;;;;;;;2.20;1.83;;;2.10;99.90;;;;;;6243732;23;20255;-79
2023/03/11 00:03:28;;;;;;;6.30;3.63;;;2.00;99.90;;;;;;6244145;23;20466;-80
2023/03/11 00:06:00;;;;;;;2.80;2.50;;;2.00;99.90;;;;;;6245178;23;20218;-79
2023/03/11 00:08:29;;;;;;;2.33;1.40;;;2.00;99.90;;;;;;6244724;23;20176;-80
2023/03/11 00:11:00;;;;;;;1.77;1.60;;;1.90;99.90;;;;;;6245647;23;20418;-78
2023/03/11 00:13:30;;;;;;;1.17;1.10;;;1.90;99.90;;;;;;6244097;22;20442;-79
2023/03/11 00:16:00;;;;;;;2.27;1.30;;;1.80;99.90;;;;;;6244760;23;20513;-79
2023/03/11 00:18:30;;;;;;;2.77;2.30;;;1.70;99.90;;;;;;6244149;23;20688;-80
2023/03/11 00:21:00;;;;;;;3.43;2.20;;;1.70;99.90;;;;;;6244663;23;20402;-79
2023/03/11 00:23:29;;;;;;;1.60;1.50;;;1.70;99.90;;;;;;6246120;23;20403;-80
2023/03/11 00:26:01;;;;;;;2.90;2.37;;;1.70;99.90;;;;;;6246769;23;20409;-80
2023/03/11 00:28:30;;;;;;;2.17;1.50;;;1.60;99.90;;;;;;6246579;23;20229;-80
2023/03/11 00:31:02;;;;;;;4.67;2.57;;;1.60;99.90;;;;;;6246395;23;20457;-78
2023/03/11 00:33:31;;;;;;;2.50;2.20;;;1.60;99.90;;;;;;6245974;23;20422;-80
2023/03/11 00:36:01;;;;;;;4.33;2.10;;;1.50;99.90;;;;;;6246401;23;20230;-81
2023/03/11 00:38:29;;;;;;;2.93;2.60;;;1.50;99.90;;;;;;6246433;23;20902;-78
2023/03/11 00:41:00;;;;;;;2.00;1.30;;;1.50;99.90;;;;;;6262446;23;20483;-80
2023/03/11 00:43:28;;;;;;;1.43;1.33;;;1.60;99.90;;;;;;6245460;23;20411;-80
2023/03/11 00:45:56;;;;;;;1.50;1.20;;;1.60;99.90;;;;;;6246116;23;20897;-80
2023/03/11 00:48:25;;;;;;;1.20;1.10;;;1.60;99.90;;;;;;6246115;23;20430;-79
2023/03/11 00:50:56;;;;;;;1.77;1.20;;;1.60;99.90;;;;;;6246642;23;20406;-80
2023/03/11 00:53:25;;;;;;;1.30;1.20;;;1.60;99.90;;;;;;6246111;23;20445;-81
2023/03/11 00:55:53;;;;;;;1.00;1.00;;;1.60;99.90;;;;;;6246051;23;20533;-80
2023/03/11 00:58:26;;;;;;;1.30;1.20;;;1.50;99.90;;;;;;6245540;23;20413;-79
2023/03/11 01:00:54;;;;;;;1.43;1.20;;;1.50;99.90;;;;;;6246486;23;20432;-80
2023/03/11 01:03:24;;;;;;;1.10;1.10;;;1.40;99.90;;;;;;6245991;23;20468;-80
2023/03/11 01:05:52;;;;;;;1.70;1.37;;;1.50;99.90;;;;;;6246790;23;20175;-78
2023/03/11 01:08:20;;;;;;;1.20;1.10;;;1.40;99.90;;;;;;6245404;23;20929;-78
2023/03/11 01:10:50;;;;;;;3.37;1.10;;;1.40;99.90;;;;;;6246216;23;20266;-80
2023/03/11 01:13:18;;;;;;;1.00;1.00;;;1.40;99.90;;;;;;6245884;22;20466;-79
2023/03/11 01:15:46;;;;;;;3.67;1.10;;;1.40;99.90;;;;;;6246236;23;20270;-79
2023/03/11 01:18:14;;;;;;;1.30;1.20;;;1.50;99.90;;;;;;6245754;23;20429;-79
2023/03/11 01:20:43;;;;;;;0.90;0.90;;;1.40;99.90;;;;;;6246046;23;20446;-79
2023/03/11 01:23:13;;;;;;;1.20;1.20;;;1.40;99.90;;;;;;6245740;23;20434;-80
2023/03/11 01:25:41;;;;;;;1.10;1.00;;;1.40;99.90;;;;;;6246219;23;20480;-80
2023/03/11 01:28:10;;;;;;;1.10;1.10;;;1.40;99.90;;;;;;6246389;23;20451;-77
2023/03/11 01:30:40;;;;;;;1.63;1.20;;;1.30;99.90;;;;;;6246409;23;20419;-80
2023/03/11 01:33:13;;;;;;;1.60;1.20;;;1.30;99.90;;;;;;6246105;23;20410;-80
2023/03/11 01:35:42;;;;;;;1.20;1.10;;;1.30;99.90;;;;;;6246053;23;20785;-80
2023/03/11 01:38:12;;;;;;;1.10;1.00;;;1.20;99.90;;;;;;6249599;23;20889;-78
2023/03/11 01:40:42;;;;;;;2.80;1.40;;;1.10;99.90;;;;;;6246250;23;20406;-79
2023/03/11 01:43:40;;;;;;;1.17;1.10;;;1.10;99.90;;;;;;6245027;23;20442;-80
2023/03/11 01:46:13;;;;;;;0.90;0.90;;;1.20;99.90;;;;;;6245718;23;20879;-80
2023/03/11 01:48:47;;;;;;;4.43;1.27;;;1.20;99.90;;;;;;6245609;23;20390;-79
2023/03/11 01:51:18;;;;;;;2.70;1.33;;;1.20;99.90;;;;;;6245467;23;20810;-79
2023/03/11 01:53:46;;;;;;;3.20;1.23;;;1.10;99.90;;;;;;6244839;23;20424;-80
2023/03/11 01:56:16;;;;;;;1.33;1.23;;;1.10;99.90;;;;;;6245432;23;20454;-79
2023/03/11 01:58:48;;;;;;;1.33;1.23;;;1.00;99.90;;;;;;6245286;23;20446;-79
2023/03/11 02:01:17;;;;;;;1.20;1.10;;;1.00;99.90;;;;;;6245844;23;20172;-79
2023/03/11 02:03:45;;;;;;;1.57;1.20;;;1.00;99.90;;;;;;6244978;23;20410;-80
2023/03/11 02:06:16;;;;;;;1.30;1.20;;;1.00;99.90;;;;;;6245437;23;20493;-78
2023/03/11 02:08:45;;;;;;;1.20;1.10;;;1.10;99.90;;;;;;6245790;23;20406;-78
2023/03/11 02:11:18;;;;;;;1.50;1.40;;;1.00;99.90;;;;;;6245006;23;20767;-79
2023/03/11 02:13:49;;;;;;;1.40;1.27;;;0.90;99.90;;;;;;6244976;22;20521;-79
2023/03/11 02:16:20;;;;;;;1.30;1.20;;;0.90;99.90;;;;;;6245500;23;20720;-79
2023/03/11 02:18:49;;;;;;;1.37;1.27;;;0.90;99.90;;;;;;6244897;23;20413;-79
2023/03/11 02:21:25;;;;;;;1.47;1.30;;;0.80;99.90;;;;;;6245329;23;20399;-79
2023/03/11 02:24:02;;;;;;;1.40;1.30;;;0.80;99.90;;;;;;6244850;23;20429;-78
2023/03/11 02:26:40;;;;;;;1.73;1.37;;;0.80;99.90;;;;;;6244767;23;20460;-80
2023/03/11 02:29:11;;;;;;;1.30;1.20;;;0.80;99.90;;;;;;6244883;23;20500;-79
2023/03/11 02:31:42;;;;;;;1.53;1.43;;;0.80;99.90;;;;;;6245330;23;20410;-78
2023/03/11 02:34:16;;;;;;;2.10;1.37;;;0.70;99.90;;;;;;6245105;23;20402;-79
2023/03/11 02:36:44;;;;;;;2.03;1.30;;;0.70;99.90;;;;;;6244511;23;20431;-79
2023/03/11 02:39:17;;;;;;;1.40;1.30;;;0.70;99.90;;;;;;6244928;23;20735;-80
2023/03/11 02:41:49;;;;;;;1.63;1.13;;;0.70;99.90;;;;;;6244948;23;20480;-78
2023/03/11 02:44:19;;;;;;;1.30;1.20;;;0.70;99.90;;;;;;6244948;23;20414;-78
2023/03/11 02:46:48;;;;;;;1.00;1.00;;;0.70;99.90;;;;;;6244804;23;20866;-79
2023/03/11 02:49:16;;;;;;;1.40;1.30;;;0.70;99.90;;;;;;6244695;23;20422;-79
2023/03/11 02:51:44;;;;;;;1.40;1.30;;;0.70;99.90;;;;;;6244943;23;20445;-81
2023/03/11 02:54:13;;;;;;;1.00;1.00;;;0.70;99.90;;;;;;6244133;23;20472;-79
2023/03/11 02:56:41;;;;;;;1.40;1.10;;;0.70;99.90;;;;;;6245021;23;20869;-78
2023/03/11 02:59:09;;;;;;;1.73;1.20;;;0.60;99.90;;;;;;6244923;23;20406;-78
2023/03/11 03:01:40;;;;;;;1.40;1.30;;;0.60;99.90;;;;;;6244738;23;20481;-79
2023/03/11 03:04:08;;;;;;;1.53;1.30;;;0.60;99.90;;;;;;6244699;23;20411;-78
2023/03/11 03:06:36;;;;;;;1.30;1.20;;;0.60;99.90;;;;;;6245003;23;20472;-79
2023/03/11 03:09:04;;;;;;;1.20;1.10;;;0.60;99.90;;;;;;6244186;23;20460;-78
2023/03/11 03:11:34;;;;;;;1.07;1.07;;;0.60;99.90;;;;;;6245037;23;20793;-78
2023/03/11 03:14:03;;;;;;;1.40;1.20;;;0.60;99.90;;;;;;6243992;22;20453;-79
2023/03/11 03:16:31;;;;;;;1.60;1.20;;;0.60;99.90;;;;;;6244440;23;20493;-78
2023/03/11 03:19:02;;;;;;;1.00;1.00;;;0.60;99.90;;;;;;6244680;23;20437;-80
2023/03/11 03:21:33;;;;;;;1.20;1.10;;;0.60;99.90;;;;;;6244857;23;20457;-79
2023/03/11 03:24:02;;;;;;;1.00;1.00;;;0.50;99.90;;;;;;6244140;23;20410;-79
2023/03/11 03:26:31;;;;;;;1.13;1.03;;;0.50;99.90;;;;;;6244988;23;20769;-79
2023/03/11 03:28:59;;;;;;;1.30;1.20;;;0.50;99.90;;;;;;6244466;23;20494;-77
2023/03/11 03:31:27;;;;;;;1.17;1.07;;;0.50;99.90;;;;;;6244806;23;20498;-79
2023/03/11 03:33:59;;;;;;;0.90;0.90;;;0.50;99.90;;;;;;6244105;23;20403;-77
2023/03/11 03:36:29;;;;;;;0.97;0.93;;;0.40;99.90;;;;;;6243908;23;20477;-80
2023/03/11 03:38:58;;;;;;;1.30;1.20;;;0.40;99.90;;;;;;6245265;23;20718;-77
2023/03/11 03:41:28;;;;;;;1.17;1.07;;;0.40;99.90;;;;;;6244490;23;20425;-79
2023/03/11 03:43:57;;;;;;;1.00;1.00;;;0.40;99.90;;;;;;6244017;23;20737;-79
2023/03/11 03:46:25;;;;;;;1.57;1.13;;;0.30;99.90;;;;;;6244058;23;20493;-78
2023/03/11 03:48:54;;;;;;;1.03;1.00;;;0.30;99.90;;;;;;6244142;23;20906;-79
2023/03/11 03:51:22;;;;;;;1.20;1.10;;;0.30;99.90;;;;;;6244303;23;20470;-78
2023/03/11 03:53:52;;;;;;;1.23;1.10;;;0.30;99.90;;;;;;6244055;23;20457;-78
2023/03/11 03:56:20;;;;;;;1.20;1.13;;;0.20;99.90;;;;;;6244651;23;20498;-78
2023/03/11 03:58:48;;;;;;;0.90;0.90;;;0.20;99.90;;;;;;6244620;23;20545;-78
2023/03/11 04:01:16;;;;;;;1.70;1.30;;;0.10;99.90;;;;;;6244505;23;20793;-78
2023/03/11 04:03:45;;;;;;;1.43;1.30;;;0.10;99.90;;;;;;6243278;23;20516;-79
2023/03/11 04:06:17;;;;;;;1.40;1.10;;;0.00;99.90;;;;;;6244960;23;20464;-78
2023/03/11 04:08:45;;;;;;;1.47;1.37;;;0.00;99.90;;;;;;6244843;23;20406;-78
2023/03/11 04:11:15;;;;;;;1.13;1.03;;;0.00;99.90;;;;;;6244253;23;20771;-79
2023/03/11 04:13:45;;;;;;;1.57;1.30;;;-0.10;99.90;;;;;;6243998;22;20794;-78
2023/03/11 04:16:17;;;;;;;3.07;1.30;;;-0.10;99.90;;;;;;6244543;23;20449;-78
2023/03/11 04:18:45;;;;;;;1.40;1.30;;;-0.20;99.90;;;;;;6244139;23;20408;-78
2023/03/11 04:21:16;;;;;;;1.57;1.40;;;-0.20;99.90;;;;;;6243682;23;20422;-78
2023/03/11 04:23:45;;;;;;;1.50;1.40;;;-0.20;99.90;;;;;;6244470;23;20469;-79
2023/03/11 04:26:14;;;;;;;3.23;2.17;;;-0.30;99.90;;;;;;6245882;23;20426;-78
2023/03/11 04:28:45;;;;;;;3.60;2.10;;;-0.20;99.90;;;;;;6243284;23;20414;-78
2023/03/11 04:31:13;;;;;;;5.53;2.87;;;-0.20;99.90;;;;;;6242685;23;20401;-77
2023/03/11 04:33:41;;;;;;;5.40;2.67;;;-0.20;99.90;;;;;;6244202;23;20473;-78
2023/03/11 04:36:13;;;;;;;3.13;2.07;;;0.00;99.90;;;;;;6244497;23;20436;-78
2023/03/11 04:38:42;;;;;;;23.97;10.10;;;0.00;99.90;;;;;;6244105;23;20464;-77
2023/03/11 04:41:12;;;;;;;4.50;2.40;;;0.10;99.90;;;;;;6243549;23;20425;-80
2023/03/11 04:43:46;;;;;;;10.10;4.40;;;0.20;99.90;;;;;;6244083;23;20770;-79
2023/03/11 04:46:14;;;;;;;13.63;6.03;;;0.20;99.90;;;;;;6244325;23;20484;-79
2023/03/11 04:48:42;;;;;;;8.37;3.70;;;0.20;99.90;;;;;;6244169;23;20415;-77
2023/03/11 04:51:10;;;;;;;11.27;5.17;;;0.20;99.90;;;;;;6244315;23;20410;-79
2023/03/11 04:53:38;;;;;;;3.87;2.73;;;0.20;99.90;;;;;;6243766;23;20513;-79
2023/03/11 04:56:07;;;;;;;1.57;1.47;;;0.20;99.90;;;;;;6243565;23;20422;-77
2023/03/11 04:58:35;;;;;;;1.67;1.57;;;0.20;99.90;;;;;;6243261;23;20477;-77
2023/03/11 05:01:05;;;;;;;1.50;1.40;;;0.20;99.90;;;;;;6243617;23;20406;-77
2023/03/11 05:03:33;;;;;;;2.23;1.60;;;0.20;99.90;;;;;;6243997;23;20402;-77
2023/03/11 05:06:02;;;;;;;1.90;1.47;;;0.20;99.90;;;;;;6243487;23;20740;-78
2023/03/11 05:08:30;;;;;;;2.00;1.70;;;0.20;99.90;;;;;;6245388;23;20445;-78
2023/03/11 05:10:58;;;;;;;3.97;1.53;;;0.20;99.90;;;;;;6246321;23;20730;-77
2023/03/11 05:13:27;;;;;;;1.53;1.37;;;0.20;99.90;;;;;;6244765;22;20457;-80
2023/03/11 05:15:55;;;;;;;1.50;1.40;;;0.00;99.90;;;;;;6246093;23;20387;-77
2023/03/11 05:18:25;;;;;;;2.40;1.53;;;0.10;99.90;;;;;;6246139;23;20508;-79
2023/03/11 05:20:53;;;;;;;1.93;1.40;;;0.00;99.90;;;;;;6246318;23;20899;-78
2023/03/11 05:23:21;;;;;;;2.77;1.80;;;0.00;99.90;;;;;;6246353;23;20474;-78
2023/03/11 05:25:49;;;;;;;2.00;1.77;;;0.00;99.90;;;;;;6245813;23;20485;-78
2023/03/11 05:28:19;;;;;;;2.57;1.43;;;0.00;99.90;;;;;;6245712;23;20919;-77
2023/03/11 05:30:47;;;;;;;2.23;1.50;;;0.00;99.90;;;;;;6245678;23;20394;-78
2023/03/11 05:33:17;;;;;;;1.70;1.60;;;0.00;99.90;;;;;;6245346;23;20779;-79
2023/03/11 05:35:46;;;;;;;2.17;1.40;;;0.00;99.90;;;;;;6245400;23;20501;-79
2023/03/11 05:38:15;;;;;;;2.13;1.43;;;0.00;99.90;;;;;;6245629;23;20452;-78
2023/03/11 05:40:43;;;;;;;1.60;1.30;;;-0.10;99.90;;;;;;6245083;23;20426;-78
2023/03/11 05:43:11;;;;;;;2.73;1.73;;;0.00;99.90;;;;;;6244879;23;20426;-80
2023/03/11 05:45:39;;;;;;;2.10;1.50;;;-0.10;99.90;;;;;;6246046;23;20397;-79
2023/03/11 05:48:07;;;;;;;1.60;1.50;;;-0.10;99.90;;;;;;6245734;23;20410;-77
2023/03/11 05:50:40;;;;;;;2.13;1.30;;;-0.10;99.90;;;;;;6245138;23;20418;-78
2023/03/11 05:53:09;;;;;;;2.90;1.60;;;-0.10;99.90;;;;;;6245431;23;20718;-79
2023/03/11 05:55:37;;;;;;;1.50;1.17;;;-0.10;99.90;;;;;;6245534;23;20442;-79
2023/03/11 05:58:06;;;;;;;4.30;1.50;;;-0.10;99.90;;;;;;6245405;23;20521;-78
2023/03/11 06:00:34;;;;;;;2.87;1.40;;;-0.10;99.90;;;;;;6245199;23;20402;-78
2023/03/11 06:03:03;;;;;;;1.67;1.20;;;-0.10;99.90;;;;;;6244872;23;20440;-79
2023/03/11 06:05:31;;;;;;;1.60;1.37;;;-0.10;99.90;;;;;;6245578;23;20489;-77
2023/03/11 06:08:02;;;;;;;1.67;1.40;;;-0.10;99.90;;;;;;6245055;23;20928;-79
2023/03/11 06:10:31;;;;;;;2.80;1.40;;;-0.10;99.90;;;;;;6245418;23;20422;-78
2023/03/11 06:12:59;;;;;;;2.77;1.43;;;-0.10;99.90;;;;;;6244915;22;20425;-77
2023/03/11 06:15:28;;;;;;;2.57;1.30;;;-0.10;99.90;;;;;;6244743;23;20418;-77
2023/03/11 06:17:58;;;;;;;3.53;1.77;;;-0.10;99.90;;;;;;6245269;23;20466;-79
2023/03/11 06:20:27;;;;;;;4.33;2.20;;;0.00;99.90;;;;;;6245535;23;20416;-79
2023/03/11 06:22:56;;;;;;;2.80;2.00;;;0.00;99.90;;;;;;6245083;23;20480;-79
2023/03/11 06:25:26;;;;;;;1.60;1.10;;;0.00;99.90;;;;;;6245342;23;20410;-78
2023/03/11 06:27:56;;;;;;;4.77;1.20;;;0.00;99.90;;;;;;6245215;23;20414;-78
2023/03/11 06:30:25;;;;;;;1.80;1.10;;;0.00;99.90;;;;;;6244971;23;20912;-79
2023/03/11 06:32:53;;;;;;;2.60;1.20;;;0.00;99.90;;;;;;6244943;23;20407;-78
2023/03/11 06:35:22;;;;;;;1.30;1.10;;;0.10;99.90;;;;;;6244904;23;20410;-78
2023/03/11 06:37:52;;;;;;;1.77;1.20;;;0.10;99.90;;;;;;6245595;23;20398;-78
2023/03/11 06:40:21;;;;;;;3.47;2.30;;;0.10;99.90;;;;;;6245278;23;20448;-79
2023/03/11 06:42:49;;;;;;;5.50;1.37;;;0.10;99.90;;;;;;6244382;23;20449;-77
2023/03/11 06:45:21;;;;;;;2.77;1.30;;;0.20;99.90;;;;;;6245436;23;20410;-79
2023/03/11 06:47:50;;;;;;;3.53;1.63;;;0.20;99.90;;;;;;6245489;23;20383;-79
2023/03/11 06:50:22;;;;;;;1.90;0.80;;;0.10;99.90;;;;;;6245070;23;20409;-79
2023/03/11 06:52:50;;;;;;;1.00;0.90;;;0.10;99.90;;;;;;6244174;23;20430;-80
2023/03/11 06:55:20;;;;;;;2.20;1.07;;;0.10;99.90;;;;;;6245184;23;20497;-78
2023/03/11 06:57:48;;;;;;;4.03;1.17;;;0.10;99.90;;;;;;6245736;23;20489;-79
2023/03/11 07:00:18;;;;;;;3.83;1.50;;;0.20;99.90;;;;;;6245097;23;20431;-78
2023/03/11 07:02:49;;;;;;;3.10;1.17;;;0.10;99.90;;;;;;6245090;23;20410;-79
2023/03/11 07:05:18;;;;;;;1.70;1.20;;;0.20;99.90;;;;;;6245277;23;20399;-78
2023/03/11 07:07:47;;;;;;;2.53;1.33;;;0.30;99.90;;;;;;6244777;23;20445;-77
2023/03/11 07:10:15;;;;;;;3.27;1.40;;;0.40;99.90;;;;;;6245170;23;20187;-78
2023/03/11 07:12:43;;;;;;;2.80;1.20;;;0.50;99.90;;;;;;6245111;23;20410;-79
2023/03/11 07:15:12;;;;;;;4.23;1.50;;;0.60;99.90;;;;;;6244292;22;20838;-79
2023/03/11 07:17:42;;;;;;;5.03;1.67;;;0.70;99.90;;;;;;6244982;23;20203;-80
2023/03/11 07:20:11;;;;;;;3.70;1.97;;;0.80;99.90;;;;;;6244893;23;20529;-79
2023/03/11 07:22:39;;;;;;;5.03;2.40;;;0.80;99.90;;;;;;6244599;23;20795;-80
2023/03/11 07:25:08;;;;;;;4.97;2.20;;;1.00;99.90;;;;;;6244891;23;20186;-78
2023/03/11 07:27:38;;;;;;;4.87;1.30;;;1.00;99.90;;;;;;6245280;23;20405;-78
2023/03/11 07:30:07;;;;;;;3.03;1.47;;;1.00;99.90;;;;;;6244548;23;20187;-80
2023/03/11 07:32:35;;;;;;;2.50;1.37;;;1.00;99.90;;;;;;6243878;23;20710;-80
2023/03/11 07:35:05;;;;;;;2.43;1.50;;;1.00;99.90;;;;;;6244878;23;20271;-79
2023/03/11 07:37:34;;;;;;;14.03;8.10;;;1.10;99.90;;;;;;6245035;23;20183;-79
2023/03/11 07:40:02;;;;;;;4.47;2.60;;;1.20;99.90;;;;;;6245020;23;20246;-78
2023/03/11 07:42:35;;;;;;;2.43;1.27;;;1.30;99.90;;;;;;6244206;23;20214;-78
2023/03/11 07:45:04;;;;;;;3.40;2.17;;;1.20;99.90;;;;;;6241252;23;20250;-78
2023/03/11 07:47:32;;;;;;;2.90;1.90;;;1.10;99.90;;;;;;6240613;23;20174;-80
2023/03/11 07:50:00;;;;;;;2.00;1.13;;;1.10;99.90;;;;;;6242990;23;20168;-77
2023/03/11 07:52:32;;;;;;;4.73;1.40;;;0.90;99.90;;;;;;6242857;23;20187;-78
2023/03/11 07:55:03;;;;;;;4.00;1.97;;;0.90;99.90;;;;;;6244107;23;20705;-79
2023/03/11 07:57:31;;;;;;;6.13;2.20;;;0.80;99.90;;;;;;6244723;23;20493;-80
2023/03/11 08:00:00;;;;;;;4.30;1.60;;;0.80;99.90;;;;;;6244659;23;20278;-80
2023/03/11 08:02:30;;;;;;;4.87;2.00;;;0.70;99.90;;;;;;6242794;23;20179;-79
2023/03/11 08:04:58;;;;;;;3.50;1.87;;;1.10;99.90;;;;;;6243950;23;20472;-80
2023/03/11 08:07:27;;;;;;;2.57;1.20;;;1.90;99.90;;;;;;6243765;23;20182;-81
2023/03/11 08:09:56;;;;;;;2.87;1.00;;;2.80;99.90;;;;;;6244537;23;20654;-80
2023/03/11 08:12:24;;;;;;;5.83;1.17;;;3.10;99.90;;;;;;6242951;23;20183;-79
2023/03/11 08:14:55;;;;;;;2.53;1.33;;;3.10;99.90;;;;;;6244073;22;20516;-79
2023/03/11 08:17:23;;;;;;;3.30;1.60;;;2.80;99.90;;;;;;6243750;23;20176;-80
2023/03/11 08:19:51;;;;;;;7.40;4.07;;;2.80;99.90;;;;;;6244102;23;20211;-79
2023/03/11 08:22:20;;;;;;;3.50;1.90;;;3.70;99.90;;;;;;6243015;23;20691;-78
2023/03/11 08:24:51;;;;;;;2.10;1.10;;;4.60;99.90;;;;;;6244038;23;20199;-80
2023/03/11 08:27:21;;;;;;;1.50;1.00;;;5.10;99.90;;;;;;6243574;23;20172;-78
2023/03/11 08:29:50;;;;;;;2.27;1.27;;;5.80;99.90;;;;;;6243613;23;20226;-79
2023/03/11 08:32:18;;;;;;;3.33;1.30;;;7.10;98.30;;;;;;6243115;23;20175;-79
2023/03/11 08:34:46;;;;;;;1.67;0.97;;;6.90;96.20;;;;;;6243157;23;20491;-78
2023/03/11 08:37:17;;;;;;;2.00;1.03;;;7.30;94.60;;;;;;6243533;23;20646;-78
2023/03/11 08:39:45;;;;;;;2.40;1.13;;;7.20;93.80;;;;;;6243576;23;20221;-81
2023/03/11 08:42:14;;;;;;;2.10;1.30;;;7.60;92.30;;;;;;6242701;23;20815;-78
2023/03/11 08:44:44;;;;;;;2.47;1.47;;;8.30;91.70;;;;;;6246043;23;20245;-78
2023/03/11 08:47:14;;;;;;;2.60;1.03;;;7.70;91.00;;;;;;6246294;23;20174;-80
2023/03/11 08:49:42;;;;;;;3.17;1.30;;;7.50;90.90;;;;;;6245761;23;20558;-79
2023/03/11 08:52:13;;;;;;;2.10;1.00;;;7.50;90.30;;;;;;6244725;23;20446;-78
2023/03/11 08:54:43;;;;;;;2.53;1.10;;;7.70;89.60;;;;;;6246637;22;20278;-79
2023/03/11 08:57:11;;;;;;;1.70;0.93;;;8.00;87.90;;;;;;6246792;23;20188;-78
2023/03/11 08:59:39;;;;;;;3.87;1.17;;;8.10;89.20;;;;;;6246778;23;20238;-79
2023/03/11 09:02:10;;;;;;;1.27;1.00;;;7.80;88.60;;;;;;6245248;23;20628;-78
2023/03/11 09:04:41;;;;;;;2.33;1.10;;;8.40;83.50;;;;;;6245914;23;20181;-79
2023/03/11 09:07:11;;;;;;;1.90;1.00;;;7.60;83.80;;;;;;6245635;23;20183;-80
2023/03/11 09:09:40;;;;;;;2.30;1.00;;;6.80;88.90;;;;;;6245645;23;20175;-77
2023/03/11 09:12:12;;;;;;;1.87;1.00;;;7.70;90.50;;;;;;6245021;23;20191;-76
2023/03/11 09:14:40;;;;;;;1.80;0.97;;;7.70;84.60;;;;;;6246432;23;20258;-77
2023/03/11 09:17:11;;;;;;;1.70;1.20;;;7.60;84.50;;;;;;6246878;23;20187;-78
2023/03/11 09:19:44;;;;;;;1.63;1.10;;;7.10;87.80;;;;;;6245877;23;20268;-79
2023/03/11 09:22:13;;;;;;;1.70;1.10;;;6.30;89.70;;;;;;6245374;23;20187;-77
2023/03/11 09:24:41;;;;;;;11.47;6.93;;;5.60;91.40;;;;;;6245475;23;20179;-80
2023/03/11 09:27:09;;;;;;;10.13;6.80;;;5.10;94.90;;;;;;6245300;23;20263;-80
2023/03/11 09:29:37;;;;;;;6.43;3.93;;;6.10;92.60;;;;;;6245891;23;20231;-78
2023/03/11 09:32:09;;;;;;;2.53;1.83;;;5.60;94.10;;;;;;6245231;23;20234;-78
2023/03/11 09:34:42;;;;;;;4.03;3.63;;;6.30;92.80;;;;;;6245686;23;20254;-78
2023/03/11 09:37:10;;;;;;;1.30;1.20;;;5.60;92.60;;;;;;6246017;23;20185;-79
2023/03/11 09:39:38;;;;;;;2.13;1.10;;;5.30;94.70;;;;;;6244823;23;20200;-78
2023/03/11 09:44:54;;;;;;;2.27;1.07;;;4.40;96.40;;;;;;5132349;27;21140;-79
2023/03/11 09:47:37;;;;;;;2.73;1.10;;;4.60;98.00;;;;;;5130194;28;20280;-78
2023/03/11 09:50:22;;;;;;;3.10;1.20;;;4.60;97.30;;;;;;5130556;28;20333;-78
2023/03/11 09:52:58;;;;;;;2.57;1.27;;;4.40;98.40;;;;;;5132895;27;20606;-80
2023/03/11 09:55:42;;;;;;;2.13;1.10;;;3.90;99.30;;;;;;5130625;27;20197;-79
2023/03/11 09:58:19;;;;;;;1.87;1.30;;;3.60;99.90;;;;;;5141492;27;20220;-79
2023/03/11 10:00:53;;;;;;;4.60;1.77;;;3.80;99.90;;;;;;5138283;27;20271;-79
2023/03/11 10:03:31;;;;;;;2.13;1.40;;;3.90;99.90;;;;;;5150073;27;20219;-79
2023/03/11 10:06:13;;;;;;;3.77;1.70;;;4.20;99.90;;;;;;5150967;27;20291;-79
2023/03/11 10:08:46;;;;;;;4.57;1.50;;;4.10;99.90;;;;;;5150483;27;20211;-79
2023/03/11 10:11:27;;;;;;;4.10;1.40;;;4.00;99.90;;;;;;5150557;27;20552;-78
2023/03/11 10:14:08;;;;;;;2.13;1.50;;;3.70;99.90;;;;;;5147315;27;20189;-78
2023/03/11 10:16:46;;;;;;;3.27;1.77;;;3.70;99.90;;;;;;5129690;28;20210;-79
2023/03/11 10:19:25;;;;;;;2.90;1.40;;;3.40;99.90;;;;;;5129491;27;20205;-79
2023/03/11 10:22:02;;;;;;;1.73;1.60;;;4.60;99.90;;;;;;5129655;28;20632;-80
2023/03/11 10:24:45;;;;;;;3.80;1.97;;;5.20;99.90;;;;;;5147073;27;20225;-77
2023/03/11 10:27:17;;;;;;;2.70;1.63;;;6.80;98.00;;;;;;5129854;27;20190;-79
2023/03/11 10:29:55;;;;;;;2.27;1.30;;;7.60;93.00;;;;;;5129952;28;20328;-77
2023/03/11 10:32:34;;;;;;;4.40;1.30;;;8.20;91.20;;;;;;5135479;28;20217;-79
2023/03/11 10:35:10;;;;;;;2.93;1.47;;;7.70;92.50;;;;;;5143932;27;20213;-78
2023/03/11 10:37:45;;;;;;;4.03;1.50;;;7.20;90.90;;;;;;5151044;27;20341;-78
2023/03/11 10:40:23;;;;;;;3.33;1.57;;;6.70;92.30;;;;;;5145665;27;20268;-77
2023/03/11 10:42:54;;;;;;;3.93;2.50;;;6.10;94.20;;;;;;5139189;27;20212;-79
2023/03/11 10:45:23;;;;;;;3.47;1.70;;;4.90;96.50;;;;;;5129892;27;20194;-79
2023/03/11 10:47:52;;;;;;;4.00;2.10;;;4.40;99.30;;;;;;5149725;27;20205;-79
2023/03/11 10:50:21;;;;;;;2.37;1.60;;;5.40;99.90;;;;;;5150027;27;20296;-79
2023/03/11 10:53:08;;;;;;;4.23;1.57;;;6.30;98.00;;;;;;5139680;27;20201;-82
2023/03/11 10:55:47;;;;;;;3.90;1.80;;;6.90;94.30;;;;;;5124668;27;20201;-80
2023/03/11 10:58:21;;;;;;;3.40;1.57;;;5.60;94.40;;;;;;5132056;27;20666;-78
2023/03/11 11:01:04;;;;;;;3.40;1.70;;;4.80;97.00;;;;;;5125082;27;20229;-79
2023/03/11 11:03:35;;;;;;;3.70;1.60;;;4.20;99.80;;;;;;5126424;27;20249;-80
2023/03/11 11:06:20;;;;;;;4.47;2.03;;;3.80;99.70;;;;;;5133750;27;20229;-78
2023/03/11 11:09:09;;;;;;;2.57;1.60;;;3.80;99.90;;;;;;5115907;27;20255;-77
2023/03/11 11:12:02;;;;;;;4.40;1.40;;;4.40;99.90;;;;;;5115358;28;20324;-80
2023/03/11 11:14:48;;;;;;;6.67;2.00;;;6.70;99.90;;;;;;5129290;27;20225;-77
2023/03/11 11:17:26;;;;;;;2.73;1.43;;;7.50;97.40;;;;;;5135486;27;20204;-79
2023/03/11 11:19:58;;;;;;;3.23;1.43;;;7.20;94.50;;;;;;5117919;27;20570;-78
2023/03/11 11:22:31;;;;;;;2.93;1.50;;;6.30;94.70;;;;;;5114141;28;20291;-78
2023/03/11 11:24:59;;;;;;;2.50;1.53;;;5.50;99.00;;;;;;5123455;27;20214;-79
2023/03/11 11:27:28;;;;;;;3.73;1.80;;;5.30;98.40;;;;;;5121042;27;20208;-79
2023/03/11 11:30:15;;;;;;;2.83;1.60;;;5.20;99.10;;;;;;5125878;27;20229;-80
2023/03/11 11:32:44;;;;;;;4.03;2.07;;;5.30;99.70;;;;;;5131718;27;20293;-78
2023/03/11 11:35:15;;;;;;;1.97;1.30;;;5.60;99.90;;;;;;5122132;27;20194;-80
2023/03/11 11:37:47;;;;;;;4.40;2.00;;;5.70;99.10;;;;;;5115950;27;20222;-79
2023/03/11 11:40:25;;;;;;;2.03;1.60;;;5.60;96.40;;;;;;5132616;27;20531;-80
2023/03/11 11:42:56;;;;;;;3.87;1.70;;;5.50;97.90;;;;;;5116456;27;20257;-79
2023/03/11 11:45:32;;;;;;;4.63;2.73;;;5.80;98.20;;;;;;5117440;28;20575;-78
2023/03/11 11:48:05;;;;;;;4.40;1.67;;;7.10;96.30;;;;;;5113197;28;20205;-78
2023/03/11 11:50:37;;;;;;;2.27;1.30;;;6.70;94.60;;;;;;5112494;27;20632;-78
2023/03/11 11:53:16;;;;;;;2.43;1.23;;;6.10;95.10;;;;;;5113745;27;20206;-78
2023/03/11 11:55:48;;;;;;;2.13;1.20;;;5.60;95.60;;;;;;5114262;28;20244;-80
2023/03/11 11:58:18;;;;;;;3.80;1.50;;;5.30;96.40;;;;;;5114066;27;20198;-79
2023/03/11 12:01:00;;;;;;;1.30;1.20;;;5.50;96.10;;;;;;5113765;27;20759;-79
2023/03/11 12:03:54;;;;;;;2.87;1.70;;;5.60;95.80;;;;;;5113972;28;20204;-80
2023/03/11 12:06:31;;;;;;;3.33;1.20;;;5.80;94.40;;;;;;5100024;28;20217;-78
2023/03/11 12:09:14;;;;;;;2.63;1.80;;;5.80;94.20;;;;;;5113472;27;20644;-79
2023/03/11 12:11:49;;;;;;;2.53;1.30;;;5.30;95.40;;;;;;5113332;27;20658;-81
2023/03/11 12:14:25;;;;;;;2.43;1.40;;;5.30;96.40;;;;;;5120765;27;20600;-78
2023/03/11 12:16:57;;;;;;;2.97;1.50;;;4.90;98.50;;;;;;5123692;27;20275;-79
2023/03/11 12:19:47;;;;;;;4.10;1.90;;;5.90;98.20;;;;;;5113714;27;20255;-80
2023/03/11 12:22:40;;;;;;;2.63;1.60;;;5.50;95.30;;;;;;5113569;28;20297;-80
2023/03/11 12:25:26;;;;;;;3.23;1.50;;;5.50;97.40;;;;;;5106261;28;20222;-80
2023/03/11 12:27:59;;;;;;;2.00;1.50;;;5.70;96.60;;;;;;5113921;28;20198;-78
2023/03/11 12:30:32;;;;;;;3.20;1.70;;;5.80;96.40;;;;;;5113555;28;20316;-78
2023/03/11 12:33:07;;;;;;;3.30;1.53;;;5.50;96.90;;;;;;5125278;27;20224;-78
2023/03/11 12:35:36;;;;;;;3.33;1.70;;;5.30;97.90;;;;;;5118740;27;20296;-78
2023/03/11 12:38:17;;;;;;;2.53;1.50;;;5.40;97.30;;;;;;5113344;28;20206;-79
2023/03/11 12:40:57;;;;;;;2.47;1.43;;;5.60;97.90;;;;;;5113396;28;20201;-79
2023/03/11 12:43:29;;;;;;;3.83;1.50;;;5.90;96.90;;;;;;5125405;27;20209;-78
2023/03/11 12:45:59;;;;;;;2.77;1.70;;;5.60;94.20;;;;;;5131338;27;20229;-79
2023/03/11 12:48:36;;;;;;;3.03;1.57;;;5.00;96.50;;;;;;5127165;27;20233;-79
2023/03/11 12:51:05;;;;;;;2.17;1.40;;;4.90;98.20;;;;;;5133987;27;20295;-79
2023/03/11 12:53:47;;;;;;;3.67;1.60;;;5.60;98.40;;;;;;5132920;27;20225;-78
2023/03/11 12:56:29;;;;;;;3.23;1.40;;;5.50;96.50;;;;;;5116570;27;20214;-80
2023/03/11 12:59:21;;;;;;;2.23;1.43;;;5.60;97.80;;;;;;5116173;27;20194;-79
2023/03/11 13:02:00;;;;;;;4.33;1.60;;;5.40;97.70;;;;;;5116162;27;20681;-78
2023/03/11 13:04:39;;;;;;;3.83;1.37;;;5.20;97.10;;;;;;5133227;27;20229;-79
2023/03/11 13:07:46;;;;;;;3.43;1.80;;;5.40;98.60;;;;;;5121251;27;20623;-80
2023/03/11 13:10:34;;;;;;;4.17;1.37;;;5.30;96.80;;;;;;5112462;28;20590;-79
2023/03/11 13:13:22;;;;;;;2.73;1.50;;;5.40;97.50;;;;;;5112665;28;20711;-79
2023/03/11 13:15:50;;;;;;;2.80;1.50;;;5.90;97.90;;;;;;5112128;28;20257;-78
2023/03/11 13:18:23;;;;;;;2.47;1.50;;;5.80;96.30;;;;;;5115720;27;20208;-78
2023/03/11 13:20:55;;;;;;;3.47;1.50;;;6.20;95.80;;;;;;5132932;27;20189;-77